CheckWX is a tool to help pilots better visualize weather data.  It is not intended as a substitute for an official pre-flight weather briefing.

15:12:12 UTC

EDDG METAR
Münster Osnabrück Airport
Münster, Germany
Current

22 mins ago

EDDG 261450Z 24012KT 9999 SCT041 21/11 Q1010 TEMPO 23015G25KT
Observed
May-26 @ 14:50 UTC
Wind
  • 240° at 12 KTS
Visibility
10,000+ meters
Flight Rules
VFR
Cloud Levels
  • Scattered at 4,100' AGL
Temperature
21°C / 70°F
Dewpoint
11°C / 52°F
Humidity
53%
Altimeter
29.82" Hg
Pressure
1009.92 hPa
Previous

52 mins ago

EDDG 261420Z 24015KT 9999 SCT042 21/11 Q1011 TEMPO 23015G25KT
Observed
May-26 @ 14:20 UTC
Wind
  • 240° at 15 KTS
Visibility
10,000+ meters
Flight Rules
VFR
Cloud Levels
  • Scattered at 4,200' AGL
Temperature
21°C / 70°F
Dewpoint
11°C / 52°F
Humidity
53%
Altimeter
29.85" Hg
Pressure
1010.92 hPa
Previous

1 hour ago

EDDG 261350Z 22015KT 190V250 9999 SCT042 21/11 Q1011 TEMPO 23015G25KT
Observed
May-26 @ 13:50 UTC
Wind
  • 220° at 15 KTS
Visibility
10,000+ meters
Flight Rules
VFR
Cloud Levels
  • Scattered at 4,200' AGL
Temperature
21°C / 70°F
Dewpoint
11°C / 52°F
Humidity
53%
Altimeter
29.85" Hg
Pressure
1010.92 hPa